Terminal Aerodrome Forecast
Issued by NWS

Home | Current Version | Previous Version | Graphics & Text | Print | Product List | Glossary On
Versions: 1 2 3 4 5 6 7 8 9 10 11 12 13 14 15 16 17 18
000
FTUS43 KBIS 270533 AAC
TAFJMS
TAF AMD
KJMS 270533Z 2706/2806 08006KT P6SM OVC035
     FM271200 07013KT P6SM VCSH OVC030
     FM271500 07014KT P6SM OVC040
     FM271800 07017G25KT P6SM OVC100
     FM280300 06012KT P6SM OVC080=

USA.gov is the U.S. government's official web portal to all federal, state and local government web resources and services.